sensor_id;sensor_type;location;lat;lon;timestamp;temperature;humidity
1800;DHT22;919;48.274;12.292;2024-02-26T00:01:46;0.70;99.90
1800;DHT22;919;48.274;12.292;2024-02-26T00:04:14;0.60;99.90
1800;DHT22;919;48.274;12.292;2024-02-26T00:06:41;0.60;99.90
1800;DHT22;919;48.274;12.292;2024-02-26T00:09:08;0.60;99.90
1800;DHT22;919;48.274;12.292;2024-02-26T00:11:35;0.60;99.90
1800;DHT22;919;48.274;12.292;2024-02-26T00:14:02;0.50;99.90
1800;DHT22;919;48.274;12.292;2024-02-26T00:16:29;0.60;99.90
1800;DHT22;919;48.274;12.292;2024-02-26T00:18:56;0.70;99.90
1800;DHT22;919;48.274;12.292;2024-02-26T00:21:24;0.60;99.90
1800;DHT22;919;48.274;12.292;2024-02-26T00:23:52;0.70;99.90
1800;DHT22;919;48.274;12.292;2024-02-26T00:26:20;0.70;99.90
1800;DHT22;919;48.274;12.292;2024-02-26T00:28:47;0.80;99.90
1800;DHT22;919;48.274;12.292;2024-02-26T00:31:13;0.80;99.90
1800;DHT22;919;48.274;12.292;2024-02-26T00:33:40;0.90;99.90
1800;DHT22;919;48.274;12.292;2024-02-26T00:36:07;0.90;99.90
1800;DHT22;919;48.274;12.292;2024-02-26T00:38:35;0.90;99.90
1800;DHT22;919;48.274;12.292;2024-02-26T00:41:02;0.80;99.90
1800;DHT22;919;48.274;12.292;2024-02-26T00:43:29;0.70;99.90
1800;DHT22;919;48.274;12.292;2024-02-26T00:45:55;0.80;99.90
1800;DHT22;919;48.274;12.292;2024-02-26T00:48:22;0.80;99.90
1800;DHT22;919;48.274;12.292;2024-02-26T00:50:51;0.80;99.90
1800;DHT22;919;48.274;12.292;2024-02-26T00:53:17;0.80;99.90
1800;DHT22;919;48.274;12.292;2024-02-26T00:55:46;0.80;99.90
1800;DHT22;919;48.274;12.292;2024-02-26T00:58:12;0.80;99.90
1800;DHT22;919;48.274;12.292;2024-02-26T01:00:39;0.80;99.90
1800;DHT22;919;48.274;12.292;2024-02-26T01:03:06;0.80;99.90
1800;DHT22;919;48.274;12.292;2024-02-26T01:05:32;0.70;99.90
1800;DHT22;919;48.274;12.292;2024-02-26T01:07:59;0.60;99.90
1800;DHT22;919;48.274;12.292;2024-02-26T01:10:26;0.50;99.90
1800;DHT22;919;48.274;12.292;2024-02-26T01:12:54;0.50;99.90
1800;DHT22;919;48.274;12.292;2024-02-26T01:15:21;0.50;99.90
1800;DHT22;919;48.274;12.292;2024-02-26T01:17:49;0.40;99.90
1800;DHT22;919;48.274;12.292;2024-02-26T01:20:15;0.40;99.90
1800;DHT22;919;48.274;12.292;2024-02-26T01:22:42;0.40;99.90
1800;DHT22;919;48.274;12.292;2024-02-26T01:25:10;0.40;99.90
1800;DHT22;919;48.274;12.292;2024-02-26T01:27:37;0.40;99.90
1800;DHT22;919;48.274;12.292;2024-02-26T01:30:06;0.40;99.90
1800;DHT22;919;48.274;12.292;2024-02-26T01:32:33;0.40;99.90
1800;DHT22;919;48.274;12.292;2024-02-26T01:35:01;0.30;99.90
1800;DHT22;919;48.274;12.292;2024-02-26T01:37:30;0.20;99.90
1800;DHT22;919;48.274;12.292;2024-02-26T01:39:56;0.20;99.90
1800;DHT22;919;48.274;12.292;2024-02-26T01:42:23;0.30;99.90
1800;DHT22;919;48.274;12.292;2024-02-26T01:44:49;0.20;99.90
1800;DHT22;919;48.274;12.292;2024-02-26T01:47:17;0.20;99.90
1800;DHT22;919;48.274;12.292;2024-02-26T01:49:44;0.20;99.90
1800;DHT22;919;48.274;12.292;2024-02-26T01:52:11;0.30;99.90
1800;DHT22;919;48.274;12.292;2024-02-26T01:54:39;0.30;99.90
1800;DHT22;919;48.274;12.292;2024-02-26T01:57:08;0.30;99.90
1800;DHT22;919;48.274;12.292;2024-02-26T01:59:35;0.30;99.90
1800;DHT22;919;48.274;12.292;2024-02-26T02:02:03;0.30;99.90
1800;DHT22;919;48.274;12.292;2024-02-26T02:04:33;0.30;99.90
1800;DHT22;919;48.274;12.292;2024-02-26T02:07:00;0.40;99.90
1800;DHT22;919;48.274;12.292;2024-02-26T02:09:27;0.40;99.90
1800;DHT22;919;48.274;12.292;2024-02-26T02:11:54;0.40;99.90
1800;DHT22;919;48.274;12.292;2024-02-26T02:14:21;0.40;99.90
1800;DHT22;919;48.274;12.292;2024-02-26T02:16:48;0.40;99.90
1800;DHT22;919;48.274;12.292;2024-02-26T02:19:14;0.40;99.90
1800;DHT22;919;48.274;12.292;2024-02-26T02:21:42;0.40;99.90
1800;DHT22;919;48.274;12.292;2024-02-26T02:24:09;0.30;99.90
1800;DHT22;919;48.274;12.292;2024-02-26T02:26:36;0.30;99.90
1800;DHT22;919;48.274;12.292;2024-02-26T02:29:23;0.30;99.90
1800;DHT22;919;48.274;12.292;2024-02-26T02:31:50;0.30;99.90
1800;DHT22;919;48.274;12.292;2024-02-26T02:34:17;0.30;99.90
1800;DHT22;919;48.274;12.292;2024-02-26T02:36:52;0.40;99.90
1800;DHT22;919;48.274;12.292;2024-02-26T02:39:19;0.40;99.90
1800;DHT22;919;48.274;12.292;2024-02-26T02:41:46;0.40;99.90
1800;DHT22;919;48.274;12.292;2024-02-26T02:44:12;0.40;99.90
1800;DHT22;919;48.274;12.292;2024-02-26T02:46:39;0.40;99.90
1800;DHT22;919;48.274;12.292;2024-02-26T02:49:08;0.40;99.90
1800;DHT22;919;48.274;12.292;2024-02-26T02:51:35;0.40;99.90
1800;DHT22;919;48.274;12.292;2024-02-26T02:54:04;0.40;99.90
1800;DHT22;919;48.274;12.292;2024-02-26T02:56:30;0.40;99.90
1800;DHT22;919;48.274;12.292;2024-02-26T02:58:57;0.40;99.90
1800;DHT22;919;48.274;12.292;2024-02-26T03:01:24;0.40;99.90
1800;DHT22;919;48.274;12.292;2024-02-26T03:03:50;0.40;99.90
1800;DHT22;919;48.274;12.292;2024-02-26T03:06:17;0.40;99.90
1800;DHT22;919;48.274;12.292;2024-02-26T03:08:44;0.50;99.90
1800;DHT22;919;48.274;12.292;2024-02-26T03:11:14;0.50;99.90
1800;DHT22;919;48.274;12.292;2024-02-26T03:13:41;0.60;99.90
1800;DHT22;919;48.274;12.292;2024-02-26T03:16:08;0.40;99.90
1800;DHT22;919;48.274;12.292;2024-02-26T03:18:35;0.30;99.90
1800;DHT22;919;48.274;12.292;2024-02-26T03:21:02;0.00;99.90
1800;DHT22;919;48.274;12.292;2024-02-26T03:23:28;-0.10;99.90
1800;DHT22;919;48.274;12.292;2024-02-26T03:25:56;-0.20;99.90
1800;DHT22;919;48.274;12.292;2024-02-26T03:28:24;-0.20;99.90
1800;DHT22;919;48.274;12.292;2024-02-26T03:30:50;-0.20;99.90
1800;DHT22;919;48.274;12.292;2024-02-26T03:33:17;-0.20;99.90
1800;DHT22;919;48.274;12.292;2024-02-26T03:35:44;-0.10;99.90
1800;DHT22;919;48.274;12.292;2024-02-26T03:38:11;0.00;99.90
1800;DHT22;919;48.274;12.292;2024-02-26T03:40:37;0.10;99.90
1800;DHT22;919;48.274;12.292;2024-02-26T03:43:04;0.10;99.90
1800;DHT22;919;48.274;12.292;2024-02-26T03:45:34;0.10;99.90
1800;DHT22;919;48.274;12.292;2024-02-26T03:48:00;0.10;99.90
1800;DHT22;919;48.274;12.292;2024-02-26T03:50:27;0.20;99.90
1800;DHT22;919;48.274;12.292;2024-02-26T03:52:54;0.30;99.90
1800;DHT22;919;48.274;12.292;2024-02-26T03:55:22;0.40;99.90
1800;DHT22;919;48.274;12.292;2024-02-26T03:57:50;0.40;99.90
1800;DHT22;919;48.274;12.292;2024-02-26T04:00:17;0.50;99.90
1800;DHT22;919;48.274;12.292;2024-02-26T04:02:46;0.50;99.90
1800;DHT22;919;48.274;12.292;2024-02-26T04:05:13;0.50;99.90
1800;DHT22;919;48.274;12.292;2024-02-26T04:07:40;0.50;99.90
1800;DHT22;919;48.274;12.292;2024-02-26T04:10:09;0.60;99.90
1800;DHT22;919;48.274;12.292;2024-02-26T04:12:37;0.60;99.90
1800;DHT22;919;48.274;12.292;2024-02-26T04:15:05;0.60;99.90
1800;DHT22;919;48.274;12.292;2024-02-26T04:17:32;0.60;99.90
1800;DHT22;919;48.274;12.292;2024-02-26T04:20:00;0.70;99.90
1800;DHT22;919;48.274;12.292;2024-02-26T04:22:27;0.70;99.90
1800;DHT22;919;48.274;12.292;2024-02-26T04:24:54;0.80;99.90
1800;DHT22;919;48.274;12.292;2024-02-26T04:27:21;0.80;99.90
1800;DHT22;919;48.274;12.292;2024-02-26T04:29:47;0.80;99.90
1800;DHT22;919;48.274;12.292;2024-02-26T04:32:14;0.80;99.90
1800;DHT22;919;48.274;12.292;2024-02-26T04:34:41;0.80;99.90
1800;DHT22;919;48.274;12.292;2024-02-26T04:37:09;0.80;99.90
1800;DHT22;919;48.274;12.292;2024-02-26T04:39:36;0.80;99.90
1800;DHT22;919;48.274;12.292;2024-02-26T04:42:03;0.70;99.90
1800;DHT22;919;48.274;12.292;2024-02-26T04:44:30;0.70;99.90
1800;DHT22;919;48.274;12.292;2024-02-26T04:46:57;0.70;99.90
1800;DHT22;919;48.274;12.292;2024-02-26T04:49:23;0.80;99.90
1800;DHT22;919;48.274;12.292;2024-02-26T04:51:50;0.70;99.90
1800;DHT22;919;48.274;12.292;2024-02-26T04:54:17;0.70;99.90
1800;DHT22;919;48.274;12.292;2024-02-26T04:56:44;0.70;99.90
1800;DHT22;919;48.274;12.292;2024-02-26T04:59:11;0.60;99.90
1800;DHT22;919;48.274;12.292;2024-02-26T05:01:37;0.50;99.90
1800;DHT22;919;48.274;12.292;2024-02-26T05:04:05;0.50;99.90
1800;DHT22;919;48.274;12.292;2024-02-26T05:06:32;0.40;99.90
1800;DHT22;919;48.274;12.292;2024-02-26T05:08:59;0.40;99.90
1800;DHT22;919;48.274;12.292;2024-02-26T05:11:27;0.40;99.90
1800;DHT22;919;48.274;12.292;2024-02-26T05:13:53;0.30;99.90
1800;DHT22;919;48.274;12.292;2024-02-26T05:16:20;0.30;99.90
1800;DHT22;919;48.274;12.292;2024-02-26T05:18:50;0.30;99.90
1800;DHT22;919;48.274;12.292;2024-02-26T05:21:16;0.30;99.90
1800;DHT22;919;48.274;12.292;2024-02-26T05:23:43;0.40;99.90
1800;DHT22;919;48.274;12.292;2024-02-26T05:26:10;0.40;99.90
1800;DHT22;919;48.274;12.292;2024-02-26T05:28:38;0.40;99.90
1800;DHT22;919;48.274;12.292;2024-02-26T05:31:05;0.50;99.90
1800;DHT22;919;48.274;12.292;2024-02-26T05:33:32;0.50;99.90
1800;DHT22;919;48.274;12.292;2024-02-26T05:35:59;0.50;99.90
1800;DHT22;919;48.274;12.292;2024-02-26T05:38:29;0.50;99.90
1800;DHT22;919;48.274;12.292;2024-02-26T05:40:57;0.40;99.90
1800;DHT22;919;48.274;12.292;2024-02-26T05:43:24;0.40;99.90
1800;DHT22;919;48.274;12.292;2024-02-26T05:45:52;0.40;99.90
1800;DHT22;919;48.274;12.292;2024-02-26T05:48:19;0.40;99.90
1800;DHT22;919;48.274;12.292;2024-02-26T05:50:46;0.50;99.90
1800;DHT22;919;48.274;12.292;2024-02-26T05:53:13;0.50;99.90
1800;DHT22;919;48.274;12.292;2024-02-26T05:55:39;0.40;99.90
1800;DHT22;919;48.274;12.292;2024-02-26T05:58:06;0.40;99.90
1800;DHT22;919;48.274;12.292;2024-02-26T06:00:33;0.40;99.90
1800;DHT22;919;48.274;12.292;2024-02-26T06:03:01;0.40;99.90
1800;DHT22;919;48.274;12.292;2024-02-26T06:05:28;0.40;99.90
1800;DHT22;919;48.274;12.292;2024-02-26T06:07:54;0.40;99.90
1800;DHT22;919;48.274;12.292;2024-02-26T06:10:21;0.30;99.90
1800;DHT22;919;48.274;12.292;2024-02-26T06:12:47;0.40;99.90
1800;DHT22;919;48.274;12.292;2024-02-26T06:15:14;0.40;99.90
1800;DHT22;919;48.274;12.292;2024-02-26T06:17:40;0.30;99.90
1800;DHT22;919;48.274;12.292;2024-02-26T06:20:09;0.30;99.90
1800;DHT22;919;48.274;12.292;2024-02-26T06:22:39;0.30;99.90
1800;DHT22;919;48.274;12.292;2024-02-26T06:25:06;0.30;99.90
1800;DHT22;919;48.274;12.292;2024-02-26T06:27:33;0.30;99.90
1800;DHT22;919;48.274;12.292;2024-02-26T06:30:00;0.30;99.90
1800;DHT22;919;48.274;12.292;2024-02-26T06:32:27;0.30;99.90
1800;DHT22;919;48.274;12.292;2024-02-26T06:34:54;0.20;99.90
1800;DHT22;919;48.274;12.292;2024-02-26T06:37:23;0.20;99.90
1800;DHT22;919;48.274;12.292;2024-02-26T06:39:50;0.20;99.90
1800;DHT22;919;48.274;12.292;2024-02-26T06:42:17;0.20;99.90
1800;DHT22;919;48.274;12.292;2024-02-26T06:44:44;0.20;99.90
1800;DHT22;919;48.274;12.292;2024-02-26T06:47:11;0.30;99.90
1800;DHT22;919;48.274;12.292;2024-02-26T06:49:38;0.30;99.90
1800;DHT22;919;48.274;12.292;2024-02-26T06:52:05;0.30;99.90
1800;DHT22;919;48.274;12.292;2024-02-26T06:54:33;0.40;99.90
1800;DHT22;919;48.274;12.292;2024-02-26T06:57:00;0.50;99.90
1800;DHT22;919;48.274;12.292;2024-02-26T06:59:27;0.50;99.90
1800;DHT22;919;48.274;12.292;2024-02-26T07:01:53;0.60;99.90
1800;DHT22;919;48.274;12.292;2024-02-26T07:04:20;0.60;99.90
1800;DHT22;919;48.274;12.292;2024-02-26T07:06:47;0.70;99.90
1800;DHT22;919;48.274;12.292;2024-02-26T07:09:14;0.70;99.90
1800;DHT22;919;48.274;12.292;2024-02-26T07:11:42;0.70;99.90
1800;DHT22;919;48.274;12.292;2024-02-26T07:14:09;0.80;99.90
1800;DHT22;919;48.274;12.292;2024-02-26T07:16:36;0.90;99.90
1800;DHT22;919;48.274;12.292;2024-02-26T07:19:03;1.00;99.90
1800;DHT22;919;48.274;12.292;2024-02-26T07:21:30;1.00;99.90
1800;DHT22;919;48.274;12.292;2024-02-26T07:23:57;1.00;99.90
1800;DHT22;919;48.274;12.292;2024-02-26T07:26:24;1.20;99.90
1800;DHT22;919;48.274;12.292;2024-02-26T07:28:52;1.30;99.90
1800;DHT22;919;48.274;12.292;2024-02-26T07:31:19;1.50;99.90
1800;DHT22;919;48.274;12.292;2024-02-26T07:33:46;1.50;99.90
1800;DHT22;919;48.274;12.292;2024-02-26T07:36:13;1.60;99.90
1800;DHT22;919;48.274;12.292;2024-02-26T07:38:39;1.70;99.90
1800;DHT22;919;48.274;12.292;2024-02-26T07:41:06;1.80;99.90
1800;DHT22;919;48.274;12.292;2024-02-26T07:43:33;1.90;99.90
1800;DHT22;919;48.274;12.292;2024-02-26T07:46:01;1.90;99.90
1800;DHT22;919;48.274;12.292;2024-02-26T07:48:28;1.90;99.90
1800;DHT22;919;48.274;12.292;2024-02-26T07:50:54;1.90;99.90
1800;DHT22;919;48.274;12.292;2024-02-26T07:53:21;2.00;99.90
1800;DHT22;919;48.274;12.292;2024-02-26T07:55:48;2.00;99.90
1800;DHT22;919;48.274;12.292;2024-02-26T07:58:15;2.20;99.90
1800;DHT22;919;48.274;12.292;2024-02-26T08:00:41;2.40;99.90
1800;DHT22;919;48.274;12.292;2024-02-26T08:03:10;2.60;99.90
1800;DHT22;919;48.274;12.292;2024-02-26T08:05:38;2.70;99.90
1800;DHT22;919;48.274;12.292;2024-02-26T08:08:08;2.90;99.90
1800;DHT22;919;48.274;12.292;2024-02-26T08:10:35;3.20;99.90
1800;DHT22;919;48.274;12.292;2024-02-26T08:13:01;3.30;99.90
1800;DHT22;919;48.274;12.292;2024-02-26T08:15:31;3.40;99.90
1800;DHT22;919;48.274;12.292;2024-02-26T08:17:59;3.40;99.90
1800;DHT22;919;48.274;12.292;2024-02-26T08:20:29;3.40;99.90
1800;DHT22;919;48.274;12.292;2024-02-26T08:22:55;3.40;99.90
1800;DHT22;919;48.274;12.292;2024-02-26T08:25:22;3.40;99.90
1800;DHT22;919;48.274;12.292;2024-02-26T08:27:49;3.50;99.90
1800;DHT22;919;48.274;12.292;2024-02-26T08:30:16;3.50;99.90
1800;DHT22;919;48.274;12.292;2024-02-26T08:32:43;3.60;99.90
1800;DHT22;919;48.274;12.292;2024-02-26T08:35:10;3.70;99.90
1800;DHT22;919;48.274;12.292;2024-02-26T08:37:38;3.90;99.90
1800;DHT22;919;48.274;12.292;2024-02-26T08:40:06;4.10;99.90
1800;DHT22;919;48.274;12.292;2024-02-26T08:42:33;4.20;99.90
1800;DHT22;919;48.274;12.292;2024-02-26T08:45:00;4.40;99.90
1800;DHT22;919;48.274;12.292;2024-02-26T08:47:27;4.60;99.90
1800;DHT22;919;48.274;12.292;2024-02-26T08:49:54;4.80;99.90
1800;DHT22;919;48.274;12.292;2024-02-26T08:52:20;5.00;99.90
1800;DHT22;919;48.274;12.292;2024-02-26T08:54:50;5.20;99.90
1800;DHT22;919;48.274;12.292;2024-02-26T08:57:16;5.20;99.90
1800;DHT22;919;48.274;12.292;2024-02-26T08:59:43;5.10;99.90
1800;DHT22;919;48.274;12.292;2024-02-26T09:02:10;5.10;99.90
1800;DHT22;919;48.274;12.292;2024-02-26T09:04:36;5.00;99.90
1800;DHT22;919;48.274;12.292;2024-02-26T09:07:03;5.00;99.90
1800;DHT22;919;48.274;12.292;2024-02-26T09:09:30;5.00;99.90
1800;DHT22;919;48.274;12.292;2024-02-26T09:11:58;5.00;99.90
1800;DHT22;919;48.274;12.292;2024-02-26T09:14:24;4.90;99.90
1800;DHT22;919;48.274;12.292;2024-02-26T09:16:51;4.90;99.90
1800;DHT22;919;48.274;12.292;2024-02-26T09:19:18;4.80;99.90
1800;DHT22;919;48.274;12.292;2024-02-26T09:21:44;4.80;99.90
1800;DHT22;919;48.274;12.292;2024-02-26T09:24:11;4.70;99.90
1800;DHT22;919;48.274;12.292;2024-02-26T09:26:38;4.70;99.90
1800;DHT22;919;48.274;12.292;2024-02-26T09:29:06;4.90;99.90
1800;DHT22;919;48.274;12.292;2024-02-26T09:31:33;4.90;99.90
1800;DHT22;919;48.274;12.292;2024-02-26T09:34:00;5.00;99.90
1800;DHT22;919;48.274;12.292;2024-02-26T09:36:27;5.10;99.90
1800;DHT22;919;48.274;12.292;2024-02-26T09:38:54;5.20;99.90
1800;DHT22;919;48.274;12.292;2024-02-26T09:41:20;5.20;99.90
1800;DHT22;919;48.274;12.292;2024-02-26T09:43:48;5.30;99.90
1800;DHT22;919;48.274;12.292;2024-02-26T09:46:18;5.50;99.90
1800;DHT22;919;48.274;12.292;2024-02-26T09:48:46;5.60;99.90
1800;DHT22;919;48.274;12.292;2024-02-26T09:51:14;5.80;99.90
1800;DHT22;919;48.274;12.292;2024-02-26T09:53:43;6.00;99.90
1800;DHT22;919;48.274;12.292;2024-02-26T09:56:11;6.10;99.90
1800;DHT22;919;48.274;12.292;2024-02-26T09:58:39;6.10;99.90
1800;DHT22;919;48.274;12.292;2024-02-26T10:01:11;6.20;99.90
1800;DHT22;919;48.274;12.292;2024-02-26T10:03:41;6.20;99.90
1800;DHT22;919;48.274;12.292;2024-02-26T10:06:09;6.20;99.90
1800;DHT22;919;48.274;12.292;2024-02-26T10:08:36;6.20;99.90
1800;DHT22;919;48.274;12.292;2024-02-26T10:11:05;6.20;99.90
1800;DHT22;919;48.274;12.292;2024-02-26T10:13:34;6.30;99.90
1800;DHT22;919;48.274;12.292;2024-02-26T10:16:01;6.40;99.90
1800;DHT22;919;48.274;12.292;2024-02-26T10:18:46;6.50;99.90
1800;DHT22;919;48.274;12.292;2024-02-26T10:21:13;6.50;99.90
1800;DHT22;919;48.274;12.292;2024-02-26T10:23:41;6.60;99.90
1800;DHT22;919;48.274;12.292;2024-02-26T10:26:10;6.60;99.90
1800;DHT22;919;48.274;12.292;2024-02-26T10:28:37;6.60;99.90
1800;DHT22;919;48.274;12.292;2024-02-26T10:31:04;6.60;99.90
1800;DHT22;919;48.274;12.292;2024-02-26T10:33:33;6.60;99.90
1800;DHT22;919;48.274;12.292;2024-02-26T10:36:02;6.60;99.90
1800;DHT22;919;48.274;12.292;2024-02-26T10:38:29;6.60;99.90
1800;DHT22;919;48.274;12.292;2024-02-26T10:40:57;6.70;99.90
1800;DHT22;919;48.274;12.292;2024-02-26T10:43:25;6.80;99.90
1800;DHT22;919;48.274;12.292;2024-02-26T10:45:55;6.80;99.90
1800;DHT22;919;48.274;12.292;2024-02-26T10:48:22;6.80;99.90
1800;DHT22;919;48.274;12.292;2024-02-26T10:50:49;6.90;99.90
1800;DHT22;919;48.274;12.292;2024-02-26T10:53:20;6.80;99.90
1800;DHT22;919;48.274;12.292;2024-02-26T10:55:49;6.90;99.90
1800;DHT22;919;48.274;12.292;2024-02-26T10:58:18;7.00;99.90
1800;DHT22;919;48.274;12.292;2024-02-26T11:00:46;7.00;99.90
1800;DHT22;919;48.274;12.292;2024-02-26T11:03:14;7.00;99.90
1800;DHT22;919;48.274;12.292;2024-02-26T11:05:44;7.00;99.90
1800;DHT22;919;48.274;12.292;2024-02-26T11:08:12;7.00;99.90
1800;DHT22;919;48.274;12.292;2024-02-26T11:10:42;7.10;99.90
1800;DHT22;919;48.274;12.292;2024-02-26T11:13:12;7.10;99.90
1800;DHT22;919;48.274;12.292;2024-02-26T11:15:41;7.10;99.90
1800;DHT22;919;48.274;12.292;2024-02-26T11:18:09;7.20;99.90
1800;DHT22;919;48.274;12.292;2024-02-26T11:20:39;7.20;99.90
1800;DHT22;919;48.274;12.292;2024-02-26T11:23:08;7.20;99.90
1800;DHT22;919;48.274;12.292;2024-02-26T11:25:35;7.30;99.90
1800;DHT22;919;48.274;12.292;2024-02-26T11:28:08;7.40;99.90
1800;DHT22;919;48.274;12.292;2024-02-26T11:30:43;7.40;99.90
1800;DHT22;919;48.274;12.292;2024-02-26T11:33:10;7.40;99.90
1800;DHT22;919;48.274;12.292;2024-02-26T11:35:38;7.50;99.90
1800;DHT22;919;48.274;12.292;2024-02-26T11:38:05;7.50;99.90
1800;DHT22;919;48.274;12.292;2024-02-26T11:40:33;7.50;99.90
1800;DHT22;919;48.274;12.292;2024-02-26T11:43:05;7.60;99.90
1800;DHT22;919;48.274;12.292;2024-02-26T11:45:56;7.70;99.90
1800;DHT22;919;48.274;12.292;2024-02-26T11:48:25;7.80;99.90
1800;DHT22;919;48.274;12.292;2024-02-26T11:50:53;7.80;99.90
1800;DHT22;919;48.274;12.292;2024-02-26T11:53:25;7.90;99.90
1800;DHT22;919;48.274;12.292;2024-02-26T11:56:22;8.00;99.90
1800;DHT22;919;48.274;12.292;2024-02-26T11:59:02;8.10;99.90
1800;DHT22;919;48.274;12.292;2024-02-26T12:01:44;8.20;99.90
1800;DHT22;919;48.274;12.292;2024-02-26T12:04:18;8.40;99.90
1800;DHT22;919;48.274;12.292;2024-02-26T12:06:53;8.60;99.90
1800;DHT22;919;48.274;12.292;2024-02-26T12:09:32;8.80;99.90
1800;DHT22;919;48.274;12.292;2024-02-26T12:11:58;9.00;99.90
1800;DHT22;919;48.274;12.292;2024-02-26T12:14:27;9.10;99.90
1800;DHT22;919;48.274;12.292;2024-02-26T12:16:55;9.30;99.90
1800;DHT22;919;48.274;12.292;2024-02-26T12:19:24;9.30;99.90
1800;DHT22;919;48.274;12.292;2024-02-26T12:21:52;9.20;99.90
1800;DHT22;919;48.274;12.292;2024-02-26T12:24:20;9.30;99.90
1800;DHT22;919;48.274;12.292;2024-02-26T12:26:47;9.20;99.90
1800;DHT22;919;48.274;12.292;2024-02-26T12:29:14;9.20;99.90
1800;DHT22;919;48.274;12.292;2024-02-26T12:31:42;9.30;99.90
1800;DHT22;919;48.274;12.292;2024-02-26T12:34:09;9.60;99.90
1800;DHT22;919;48.274;12.292;2024-02-26T12:36:36;9.90;99.90
1800;DHT22;919;48.274;12.292;2024-02-26T12:39:04;10.20;99.90
1800;DHT22;919;48.274;12.292;2024-02-26T12:41:32;10.40;99.90
1800;DHT22;919;48.274;12.292;2024-02-26T12:43:59;10.70;99.90
1800;DHT22;919;48.274;12.292;2024-02-26T12:46:26;10.90;99.90
1800;DHT22;919;48.274;12.292;2024-02-26T12:48:56;11.00;99.90
1800;DHT22;919;48.274;12.292;2024-02-26T12:51:24;11.10;99.90
1800;DHT22;919;48.274;12.292;2024-02-26T12:53:52;11.30;99.90
1800;DHT22;919;48.274;12.292;2024-02-26T12:56:18;11.40;99.90
1800;DHT22;919;48.274;12.292;2024-02-26T12:58:46;11.40;99.90
1800;DHT22;919;48.274;12.292;2024-02-26T13:01:15;11.50;99.90
1800;DHT22;919;48.274;12.292;2024-02-26T13:03:43;11.50;99.90
1800;DHT22;919;48.274;12.292;2024-02-26T13:06:11;11.60;99.90
1800;DHT22;919;48.274;12.292;2024-02-26T13:08:38;11.50;99.90
1800;DHT22;919;48.274;12.292;2024-02-26T13:11:06;11.50;99.90
1800;DHT22;919;48.274;12.292;2024-02-26T13:13:33;11.50;99.90
1800;DHT22;919;48.274;12.292;2024-02-26T13:16:04;11.60;99.90
1800;DHT22;919;48.274;12.292;2024-02-26T13:18:33;11.80;99.90
1800;DHT22;919;48.274;12.292;2024-02-26T13:21:13;11.90;99.90
1800;DHT22;919;48.274;12.292;2024-02-26T13:23:41;12.00;99.90
1800;DHT22;919;48.274;12.292;2024-02-26T13:26:09;12.00;99.90
1800;DHT22;919;48.274;12.292;2024-02-26T13:28:38;12.00;99.90
1800;DHT22;919;48.274;12.292;2024-02-26T13:31:05;12.10;99.90
1800;DHT22;919;48.274;12.292;2024-02-26T13:33:33;12.10;99.90
1800;DHT22;919;48.274;12.292;2024-02-26T13:36:00;12.10;99.90
1800;DHT22;919;48.274;12.292;2024-02-26T13:38:28;12.30;99.90
1800;DHT22;919;48.274;12.292;2024-02-26T13:40:55;12.40;99.90
1800;DHT22;919;48.274;12.292;2024-02-26T13:43:22;12.40;99.90
1800;DHT22;919;48.274;12.292;2024-02-26T13:45:49;12.20;99.90
1800;DHT22;919;48.274;12.292;2024-02-26T13:48:16;11.90;99.90
1800;DHT22;919;48.274;12.292;2024-02-26T13:50:43;11.70;99.90
1800;DHT22;919;48.274;12.292;2024-02-26T13:53:11;11.60;99.90
1800;DHT22;919;48.274;12.292;2024-02-26T13:55:41;11.70;99.90
1800;DHT22;919;48.274;12.292;2024-02-26T13:58:11;11.70;99.90
1800;DHT22;919;48.274;12.292;2024-02-26T14:00:38;12.00;99.90
1800;DHT22;919;48.274;12.292;2024-02-26T14:03:06;12.00;99.90
1800;DHT22;919;48.274;12.292;2024-02-26T14:05:33;12.10;99.90
1800;DHT22;919;48.274;12.292;2024-02-26T14:08:00;12.30;99.90
1800;DHT22;919;48.274;12.292;2024-02-26T14:10:27;12.30;99.90
1800;DHT22;919;48.274;12.292;2024-02-26T14:12:55;12.40;99.90
1800;DHT22;919;48.274;12.292;2024-02-26T14:15:21;12.20;99.90
1800;DHT22;919;48.274;12.292;2024-02-26T14:17:49;12.10;99.90
1800;DHT22;919;48.274;12.292;2024-02-26T14:20:20;12.00;99.90
1800;DHT22;919;48.274;12.292;2024-02-26T14:22:46;12.00;99.90
1800;DHT22;919;48.274;12.292;2024-02-26T14:25:13;11.90;99.90
1800;DHT22;919;48.274;12.292;2024-02-26T14:27:40;11.80;99.90
1800;DHT22;919;48.274;12.292;2024-02-26T14:30:09;11.80;99.90
1800;DHT22;919;48.274;12.292;2024-02-26T14:32:36;11.80;99.90
1800;DHT22;919;48.274;12.292;2024-02-26T14:35:04;11.80;99.90
1800;DHT22;919;48.274;12.292;2024-02-26T14:37:31;11.80;99.90
1800;DHT22;919;48.274;12.292;2024-02-26T14:39:58;11.90;99.90
1800;DHT22;919;48.274;12.292;2024-02-26T14:42:25;11.90;99.90
1800;DHT22;919;48.274;12.292;2024-02-26T14:44:52;11.90;99.90
1800;DHT22;919;48.274;12.292;2024-02-26T14:47:20;12.00;99.90
1800;DHT22;919;48.274;12.292;2024-02-26T14:49:46;12.10;99.90
1800;DHT22;919;48.274;12.292;2024-02-26T14:52:14;12.10;99.90
1800;DHT22;919;48.274;12.292;2024-02-26T14:54:40;12.20;99.90
1800;DHT22;919;48.274;12.292;2024-02-26T14:57:08;12.30;99.90
1800;DHT22;919;48.274;12.292;2024-02-26T14:59:35;12.30;99.90
1800;DHT22;919;48.274;12.292;2024-02-26T15:02:02;12.30;99.90
1800;DHT22;919;48.274;12.292;2024-02-26T15:04:30;12.20;99.90
1800;DHT22;919;48.274;12.292;2024-02-26T15:06:57;12.10;99.90
1800;DHT22;919;48.274;12.292;2024-02-26T15:09:23;11.90;99.90
1800;DHT22;919;48.274;12.292;2024-02-26T15:11:50;11.70;99.90
1800;DHT22;919;48.274;12.292;2024-02-26T15:14:17;11.60;99.90
1800;DHT22;919;48.274;12.292;2024-02-26T15:16:44;11.40;99.90
1800;DHT22;919;48.274;12.292;2024-02-26T15:19:10;11.30;99.90
1800;DHT22;919;48.274;12.292;2024-02-26T15:21:43;11.10;99.90
1800;DHT22;919;48.274;12.292;2024-02-26T15:24:10;11.00;99.90
1800;DHT22;919;48.274;12.292;2024-02-26T15:26:37;10.90;99.90
1800;DHT22;919;48.274;12.292;2024-02-26T15:29:05;10.80;99.90
1800;DHT22;919;48.274;12.292;2024-02-26T15:31:33;10.70;99.90
1800;DHT22;919;48.274;12.292;2024-02-26T15:34:00;10.60;99.90
1800;DHT22;919;48.274;12.292;2024-02-26T15:36:26;10.50;99.90
1800;DHT22;919;48.274;12.292;2024-02-26T15:38:55;10.40;99.90
1800;DHT22;919;48.274;12.292;2024-02-26T15:41:22;10.20;99.90
1800;DHT22;919;48.274;12.292;2024-02-26T15:43:49;10.10;99.90
1800;DHT22;919;48.274;12.292;2024-02-26T15:46:16;10.10;99.90
1800;DHT22;919;48.274;12.292;2024-02-26T15:48:43;10.00;99.90
1800;DHT22;919;48.274;12.292;2024-02-26T15:51:18;10.00;99.90
1800;DHT22;919;48.274;12.292;2024-02-26T15:53:45;9.90;99.90
1800;DHT22;919;48.274;12.292;2024-02-26T15:56:14;9.90;99.90
1800;DHT22;919;48.274;12.292;2024-02-26T15:58:41;9.80;99.90
1800;DHT22;919;48.274;12.292;2024-02-26T16:01:08;9.60;99.90
1800;DHT22;919;48.274;12.292;2024-02-26T16:03:37;9.50;99.90
1800;DHT22;919;48.274;12.292;2024-02-26T16:06:04;9.50;99.90
1800;DHT22;919;48.274;12.292;2024-02-26T16:08:31;9.40;99.90
1800;DHT22;919;48.274;12.292;2024-02-26T16:10:58;9.30;99.90
1800;DHT22;919;48.274;12.292;2024-02-26T16:13:27;9.30;99.90
1800;DHT22;919;48.274;12.292;2024-02-26T16:15:58;9.30;99.90
1800;DHT22;919;48.274;12.292;2024-02-26T16:18:27;9.20;99.90